createdAt,value
2018-07-07T05:02:58.475Z,7.80
2018-07-07T05:08:01.797Z,7.37
2018-07-07T05:13:05.119Z,8.10
2018-07-07T05:18:08.447Z,8.20
2018-07-07T05:23:11.796Z,7.43
2018-07-07T05:28:15.890Z,7.20
2018-07-07T05:33:19.223Z,7.60
2018-07-07T05:38:22.554Z,7.77
2018-07-07T05:43:26.674Z,7.83
2018-07-07T05:48:31.692Z,7.40
2018-07-07T05:53:35.024Z,7.23
2018-07-07T05:58:38.353Z,7.83
2018-07-07T06:03:42.449Z,7.50
2018-07-07T06:08:45.774Z,7.03
2018-07-07T06:13:49.134Z,6.53
2018-07-07T06:18:59.251Z,6.20
2018-07-07T06:24:02.743Z,6.60
2018-07-07T06:29:18.570Z,6.73
2018-07-07T06:34:21.898Z,6.07
2018-07-07T06:39:25.265Z,6.30
2018-07-07T06:44:28.635Z,5.40
2018-07-07T06:49:31.999Z,5.90
2018-07-07T06:54:35.340Z,5.60
2018-07-07T06:59:38.729Z,5.90
2018-07-07T07:04:42.044Z,6.37
2018-07-07T07:09:45.452Z,6.13
2018-07-07T07:14:49.628Z,6.00
2018-07-07T07:19:54.382Z,6.00
2018-07-07T07:24:57.889Z,5.67
2018-07-07T07:30:18.335Z,4.90
2018-07-07T07:35:22.431Z,4.60
2018-07-07T07:40:25.834Z,4.60
2018-07-07T07:45:29.959Z,3.53
2018-07-07T07:50:34.314Z,3.40
2018-07-07T07:55:38.692Z,4.10
2018-07-07T08:01:13.778Z,3.57
2018-07-07T08:06:17.107Z,3.90
2018-07-07T08:11:20.443Z,3.70
2018-07-07T08:16:23.781Z,2.93
2018-07-07T08:21:27.115Z,3.07
2018-07-07T08:26:30.449Z,3.20
2018-07-07T08:31:33.782Z,2.90
2018-07-07T08:36:37.131Z,2.53
2018-07-07T08:41:40.484Z,2.80
2018-07-07T08:46:43.806Z,3.10
2018-07-07T08:51:47.139Z,3.37
2018-07-07T08:56:50.485Z,2.60
2018-07-07T09:01:53.810Z,3.10
2018-07-07T09:06:57.138Z,2.57
2018-07-07T09:12:00.471Z,2.87
2018-07-07T09:17:03.793Z,3.20
2018-07-07T09:22:07.126Z,3.53
2018-07-07T09:27:11.223Z,2.80
2018-07-07T09:32:14.555Z,3.00
2018-07-07T09:37:17.891Z,2.30
2018-07-07T09:42:21.227Z,2.90
2018-07-07T09:47:34.782Z,2.50
2018-07-07T09:52:38.110Z,2.97
2018-07-07T09:57:41.443Z,2.90
2018-07-07T10:02:44.795Z,2.90
2018-07-07T10:07:48.163Z,2.60
2018-07-07T10:12:51.486Z,2.40
2018-07-07T10:17:54.810Z,2.40
2018-07-07T10:22:58.155Z,2.80
2018-07-07T10:28:01.484Z,2.60
2018-07-07T10:33:04.810Z,2.50
2018-07-07T10:38:08.585Z,2.30
2018-07-07T10:43:12.687Z,2.87
2018-07-07T10:48:16.022Z,2.53
2018-07-07T10:53:19.356Z,2.80
2018-07-07T10:58:22.694Z,2.20
2018-07-07T11:03:26.021Z,2.33
2018-07-07T11:08:29.354Z,2.60
2018-07-07T11:13:32.692Z,2.60
2018-07-07T11:18:36.778Z,2.67
2018-07-07T11:23:40.106Z,2.40
2018-07-07T11:28:43.445Z,2.47
2018-07-07T11:33:47.541Z,2.30
2018-07-07T11:38:50.874Z,2.20
2018-07-07T11:43:54.205Z,2.80
2018-07-07T11:48:58.294Z,2.27
2018-07-07T11:54:01.627Z,2.70
2018-07-07T11:59:15.644Z,2.50
2018-07-07T12:04:20.250Z,2.57
2018-07-07T12:09:25.575Z,2.47
2018-07-07T12:14:28.911Z,2.60
2018-07-07T12:19:32.238Z,2.60
2018-07-07T12:24:36.327Z,2.20
2018-07-07T12:29:39.695Z,2.43
2018-07-07T12:34:43.047Z,2.37
2018-07-07T12:39:51.114Z,2.55
2018-07-07T12:44:55.415Z,2.13
2018-07-07T12:50:00.702Z,2.70
2018-07-07T12:55:04.027Z,2.27
2018-07-07T13:00:09.051Z,2.03
2018-07-07T13:05:12.543Z,2.20
2018-07-07T13:10:19.095Z,2.17
2018-07-07T13:15:22.464Z,2.57
2018-07-07T13:20:43.664Z,2.40
2018-07-07T13:25:47.712Z,2.43
2018-07-07T13:30:51.154Z,2.10
2018-07-07T13:35:54.478Z,2.67
2018-07-07T13:40:58.928Z,2.80
2018-07-07T13:46:04.324Z,2.60
2018-07-07T13:51:08.799Z,2.70
2018-07-07T13:56:13.558Z,2.40
2018-07-07T14:01:17.954Z,2.57
2018-07-07T14:06:21.500Z,2.47
2018-07-07T14:11:27.643Z,2.60
2018-07-07T14:16:30.967Z,2.80
2018-07-07T14:21:34.294Z,3.03
2018-07-07T14:26:37.624Z,2.43
2018-07-07T14:31:40.979Z,3.00
2018-07-07T14:36:44.312Z,2.57
2018-07-07T14:41:47.653Z,2.97
2018-07-07T14:46:50.989Z,2.70
2018-07-07T14:51:55.089Z,3.07
2018-07-07T14:56:58.503Z,3.00
2018-07-07T15:02:01.837Z,3.10
2018-07-07T15:07:05.942Z,2.60
2018-07-07T15:12:09.269Z,2.83
2018-07-07T15:17:12.615Z,2.50
2018-07-07T15:22:15.946Z,3.10
2018-07-07T15:27:19.274Z,3.00
2018-07-07T15:32:22.711Z,2.90
2018-07-07T15:37:26.062Z,3.10
2018-07-07T15:42:30.147Z,3.17
2018-07-07T15:47:33.484Z,2.57
2018-07-07T15:52:36.809Z,2.90
2018-07-07T15:57:40.177Z,2.60
2018-07-07T16:02:43.529Z,3.00
2018-07-07T16:07:46.878Z,4.20
2018-07-07T16:12:50.211Z,2.70
2018-07-07T16:17:53.563Z,2.80
2018-07-07T16:22:56.890Z,2.77
2018-07-07T16:28:00.219Z,2.67
2018-07-07T16:33:03.549Z,2.77
2018-07-07T16:38:06.874Z,2.60
2018-07-07T16:43:10.195Z,2.63
2018-07-07T16:48:14.295Z,2.73
2018-07-07T16:53:17.642Z,2.57
2018-07-07T16:58:20.983Z,3.13
2018-07-07T17:03:24.312Z,2.20
2018-07-07T17:08:27.634Z,2.67
2018-07-07T17:13:30.976Z,2.47
2018-07-07T17:18:34.305Z,2.50
2018-07-07T17:23:38.451Z,2.40
2018-07-07T17:28:41.749Z,2.47
2018-07-07T17:33:45.091Z,2.20
2018-07-07T17:38:48.413Z,2.20
2018-07-07T17:43:51.751Z,2.80
2018-07-07T17:48:55.082Z,2.90
2018-07-07T17:53:58.415Z,2.77
2018-07-07T17:59:01.757Z,2.40
2018-07-07T18:04:05.177Z,2.50
2018-07-07T18:09:10.447Z,2.23
2018-07-07T18:14:13.782Z,2.77
2018-07-07T18:19:17.129Z,2.53
2018-07-07T18:24:20.451Z,2.53
2018-07-07T18:29:23.831Z,2.20
2018-07-07T18:34:27.210Z,1.97
2018-07-07T18:39:30.536Z,2.27
2018-07-07T18:44:33.885Z,1.67
2018-07-07T18:49:37.234Z,2.07
2018-07-07T18:54:40.558Z,2.00
2018-07-07T18:59:43.884Z,2.20
2018-07-07T19:04:47.223Z,3.20
2018-07-07T19:10:05.155Z,2.70
2018-07-07T19:15:08.575Z,2.63
2018-07-07T19:20:27.146Z,2.87
2018-07-07T19:31:00.740Z,4.93
2018-07-07T19:41:35.602Z,4.23
2018-07-07T19:46:44.872Z,3.20
2018-07-07T19:51:48.728Z,2.80
2018-07-07T19:56:52.073Z,4.37
2018-07-07T20:01:55.406Z,2.80
2018-07-07T20:06:58.733Z,3.47
2018-07-07T20:12:02.840Z,3.63
2018-07-07T20:17:06.162Z,3.60
2018-07-07T20:22:09.508Z,3.43
2018-07-07T20:27:12.860Z,3.63
2018-07-07T20:32:16.218Z,4.10
2018-07-07T20:37:20.307Z,3.27
2018-07-07T20:42:23.633Z,2.97
2018-07-07T20:47:26.958Z,4.20
2018-07-07T20:52:30.298Z,3.57
2018-07-07T20:57:33.620Z,3.07
2018-07-07T21:02:37.722Z,4.17
2018-07-07T21:07:41.068Z,4.87
2018-07-07T21:12:44.404Z,4.57
2018-07-07T21:17:47.791Z,4.13
2018-07-07T21:22:51.083Z,3.60
2018-07-07T21:27:55.170Z,3.60
2018-07-07T21:32:58.495Z,3.83
2018-07-07T21:38:01.828Z,5.17
2018-07-07T21:43:05.155Z,4.57
2018-07-07T21:48:09.245Z,4.90
2018-07-07T21:53:12.577Z,4.13
2018-07-07T21:58:15.906Z,4.60
2018-07-07T22:08:47.944Z,5.50
2018-07-07T22:13:54.813Z,4.63
2018-07-07T22:18:58.941Z,4.50
2018-07-07T22:24:02.276Z,4.87
2018-07-07T22:29:07.993Z,4.97
